createdAt,value
2022-07-30T00:02:03.051Z,18.46
2022-07-30T00:04:36.155Z,18.38
2022-07-30T00:07:09.360Z,18.38
2022-07-30T00:09:43.878Z,18.32
2022-07-30T00:12:16.968Z,18.26
2022-07-30T00:14:50.121Z,18.27
2022-07-30T00:17:23.259Z,18.28
2022-07-30T00:19:56.569Z,18.28
2022-07-30T00:22:29.672Z,18.18
2022-07-30T00:25:04.692Z,18.13
2022-07-30T00:27:38.038Z,18.13
2022-07-30T00:30:12.894Z,18.04
2022-07-30T00:32:46.008Z,18.02
2022-07-30T00:35:19.395Z,18.00
2022-07-30T00:37:52.534Z,18.00
2022-07-30T00:40:27.264Z,17.98
2022-07-30T00:43:00.388Z,17.96
2022-07-30T00:45:34.487Z,17.93
2022-07-30T00:48:07.758Z,17.92
2022-07-30T00:50:41.582Z,17.94
2022-07-30T00:53:18.450Z,17.94
2022-07-30T00:55:52.902Z,17.93
2022-07-30T00:58:26.275Z,17.88
2022-07-30T01:00:59.489Z,17.91
2022-07-30T01:03:32.646Z,17.90
2022-07-30T01:06:06.054Z,17.92
2022-07-30T01:08:47.205Z,17.89
2022-07-30T01:11:21.696Z,17.91
2022-07-30T01:13:54.830Z,17.90
2022-07-30T01:16:28.107Z,17.89
2022-07-30T01:19:21.573Z,17.90
2022-07-30T01:22:04.228Z,17.93
2022-07-30T01:24:42.143Z,17.97
2022-07-30T01:27:19.999Z,18.01
2022-07-30T01:29:55.019Z,17.99
2022-07-30T01:32:29.362Z,17.98
2022-07-30T01:35:04.109Z,17.91
2022-07-30T01:37:40.569Z,17.88
2022-07-30T01:40:15.709Z,17.82
2022-07-30T01:42:54.852Z,17.81
2022-07-30T01:45:31.410Z,17.74
2022-07-30T01:48:12.115Z,17.72
2022-07-30T01:50:48.043Z,17.65
2022-07-30T01:53:32.719Z,17.65
2022-07-30T01:56:10.540Z,17.64
2022-07-30T01:58:49.901Z,17.60
2022-07-30T02:01:23.077Z,17.61
2022-07-30T02:03:56.325Z,17.62
2022-07-30T02:06:36.002Z,17.62
2022-07-30T02:09:11.508Z,17.58
2022-07-30T02:12:05.820Z,17.59
2022-07-30T02:14:50.855Z,17.58
2022-07-30T02:17:30.447Z,17.52
2022-07-30T02:20:15.005Z,17.54
2022-07-30T02:22:50.037Z,17.48
2022-07-30T02:25:23.909Z,17.45
2022-07-30T02:27:59.778Z,17.42
2022-07-30T02:30:37.755Z,17.40
2022-07-30T02:33:12.828Z,17.39
2022-07-30T02:35:46.588Z,17.40
2022-07-30T02:38:21.785Z,17.39
2022-07-30T02:40:57.145Z,17.40
2022-07-30T02:43:35.481Z,17.34
2022-07-30T02:46:13.569Z,17.34
2022-07-30T02:48:48.098Z,17.30
2022-07-30T02:51:23.119Z,17.29
2022-07-30T02:53:57.899Z,17.30
2022-07-30T02:56:32.399Z,17.34
2022-07-30T02:59:07.621Z,17.32
2022-07-30T03:01:44.040Z,17.32
2022-07-30T03:04:20.208Z,17.30
2022-07-30T03:06:54.932Z,17.26
2022-07-30T03:09:51.116Z,17.26
2022-07-30T03:12:23.808Z,17.26
2022-07-30T03:14:57.712Z,17.17
2022-07-30T03:17:38.853Z,17.11
2022-07-30T03:20:17.043Z,17.09
2022-07-30T03:22:54.674Z,17.05
2022-07-30T03:25:30.013Z,17.02
2022-07-30T03:28:04.936Z,17.00
2022-07-30T03:30:38.520Z,16.95
2022-07-30T03:33:13.582Z,16.91
2022-07-30T03:35:49.289Z,16.89
2022-07-30T03:38:23.918Z,16.90
2022-07-30T03:40:57.801Z,16.84
2022-07-30T03:43:33.127Z,16.82
2022-07-30T03:46:08.774Z,16.78
2022-07-30T03:48:43.990Z,16.77
2022-07-30T03:51:18.346Z,16.80
2022-07-30T03:53:52.628Z,16.76
2022-07-30T03:56:25.953Z,16.72
2022-07-30T03:58:59.124Z,16.69
2022-07-30T04:01:32.683Z,16.62
2022-07-30T04:04:08.365Z,16.62
2022-07-30T04:06:42.932Z,16.64
2022-07-30T04:09:16.180Z,16.62
2022-07-30T04:11:49.265Z,16.59
2022-07-30T04:14:22.401Z,16.55
2022-07-30T04:17:01.656Z,16.57
2022-07-30T04:19:40.147Z,16.57
2022-07-30T04:22:17.158Z,16.61
2022-07-30T04:24:52.157Z,16.66
2022-07-30T04:27:25.959Z,16.65
2022-07-30T04:29:59.862Z,16.62
2022-07-30T04:32:34.113Z,16.61
2022-07-30T04:35:09.585Z,16.63
2022-07-30T04:37:42.729Z,16.65
2022-07-30T04:40:15.837Z,16.69
2022-07-30T04:42:49.386Z,16.69
2022-07-30T04:45:22.552Z,16.71
2022-07-30T04:47:55.661Z,16.71
2022-07-30T04:50:31.037Z,16.67
2022-07-30T04:53:04.636Z,16.67
2022-07-30T04:55:40.627Z,16.69
2022-07-30T04:58:16.625Z,16.76
2022-07-30T05:00:53.086Z,16.81
2022-07-30T05:03:27.571Z,16.84
2022-07-30T05:06:02.584Z,16.94
2022-07-30T05:08:35.743Z,16.99
2022-07-30T05:11:13.433Z,17.13
2022-07-30T05:13:48.812Z,17.24
2022-07-30T05:16:21.939Z,17.40
2022-07-30T05:18:55.307Z,17.52
2022-07-30T05:21:29.885Z,17.62
2022-07-30T05:24:03.519Z,17.78
2022-07-30T05:26:36.712Z,18.26
2022-07-30T05:29:09.855Z,18.95
2022-07-30T05:31:52.830Z,19.64
2022-07-30T05:34:26.322Z,20.27
2022-07-30T05:37:01.109Z,20.83
2022-07-30T05:39:35.114Z,21.38
2022-07-30T05:42:13.978Z,21.72
2022-07-30T05:44:47.076Z,22.11
2022-07-30T05:47:21.107Z,22.35
2022-07-30T05:49:55.859Z,22.73
2022-07-30T05:52:30.328Z,22.98
2022-07-30T05:55:03.553Z,23.11
2022-07-30T05:57:37.166Z,23.25
2022-07-30T06:00:12.538Z,23.51
2022-07-30T06:02:45.762Z,23.89
2022-07-30T06:05:19.459Z,24.11
2022-07-30T06:07:53.894Z,24.36
2022-07-30T06:10:27.268Z,24.54
2022-07-30T06:13:00.472Z,24.73
2022-07-30T06:15:33.758Z,25.01
2022-07-30T06:18:06.879Z,25.16
2022-07-30T06:20:39.979Z,25.50
2022-07-30T06:23:14.394Z,25.69
2022-07-30T06:25:49.126Z,25.83
2022-07-30T06:28:39.002Z,26.11
2022-07-30T06:31:12.654Z,26.34
2022-07-30T06:33:45.860Z,26.74
2022-07-30T06:36:18.938Z,27.02
2022-07-30T06:38:53.344Z,27.23
2022-07-30T06:41:26.539Z,27.45
2022-07-30T06:43:59.654Z,27.56
2022-07-30T06:46:32.759Z,27.54
2022-07-30T06:49:06.074Z,27.43
2022-07-30T06:51:39.207Z,27.76
2022-07-30T06:54:13.904Z,27.63
2022-07-30T06:56:47.069Z,27.76
2022-07-30T06:59:20.358Z,28.17
2022-07-30T07:01:54.332Z,28.26
2022-07-30T07:04:27.561Z,28.33
2022-07-30T07:07:01.055Z,28.18
2022-07-30T07:09:47.182Z,27.98
2022-07-30T07:12:20.270Z,28.40
2022-07-30T07:14:53.459Z,28.56
2022-07-30T07:17:26.570Z,28.40
2022-07-30T07:20:02.568Z,28.26
2022-07-30T07:22:36.216Z,28.37
2022-07-30T07:25:11.273Z,28.38
2022-07-30T07:27:44.423Z,28.47
2022-07-30T07:30:37.557Z,28.24
2022-07-30T07:33:12.124Z,28.06
2022-07-30T07:35:49.757Z,28.38
2022-07-30T07:38:24.330Z,28.47
2022-07-30T07:40:58.738Z,28.40
2022-07-30T07:43:31.845Z,28.20
2022-07-30T07:46:05.039Z,28.59
2022-07-30T07:48:39.334Z,28.88
2022-07-30T07:51:12.607Z,29.51
2022-07-30T07:54:00.330Z,29.48
2022-07-30T07:56:40.140Z,30.34
2022-07-30T07:59:14.136Z,30.51
2022-07-30T08:01:50.413Z,30.59
2022-07-30T08:04:23.502Z,30.65
2022-07-30T08:06:56.610Z,30.62
2022-07-30T08:09:42.023Z,30.31
2022-07-30T08:12:19.261Z,29.82
2022-07-30T08:14:52.860Z,29.68
2022-07-30T08:17:26.138Z,29.42
2022-07-30T08:20:01.194Z,29.37
2022-07-30T08:22:34.296Z,29.68
2022-07-30T08:25:08.738Z,29.53
2022-07-30T08:27:45.211Z,29.68
2022-07-30T08:30:18.311Z,29.03
2022-07-30T08:32:51.396Z,29.05
2022-07-30T08:35:24.605Z,29.41
2022-07-30T08:37:57.722Z,29.56
2022-07-30T08:40:34.543Z,29.19
2022-07-30T08:43:09.516Z,29.26
2022-07-30T08:45:46.440Z,29.42
2022-07-30T08:48:23.002Z,29.69
2022-07-30T08:50:56.437Z,29.69
2022-07-30T08:53:30.682Z,29.83
2022-07-30T08:56:05.050Z,29.52
2022-07-30T08:58:39.762Z,29.10
2022-07-30T09:01:13.583Z,28.63
2022-07-30T09:03:46.801Z,28.98
2022-07-30T09:06:20.328Z,28.91
2022-07-30T09:08:53.518Z,28.85
2022-07-30T09:11:26.883Z,28.39
2022-07-30T09:14:10.705Z,28.69
2022-07-30T09:16:45.917Z,28.57
2022-07-30T09:19:21.822Z,28.55
2022-07-30T09:21:59.195Z,28.60
2022-07-30T09:24:44.073Z,28.63
2022-07-30T09:27:17.506Z,28.80
2022-07-30T09:29:59.929Z,28.90
2022-07-30T09:32:49.817Z,29.25
2022-07-30T09:35:24.007Z,28.69
2022-07-30T09:38:05.975Z,29.03
2022-07-30T09:40:43.398Z,29.37
2022-07-30T09:43:18.254Z,29.43
2022-07-30T09:45:58.275Z,29.34
2022-07-30T09:48:31.827Z,29.03
2022-07-30T09:51:05.254Z,28.58
2022-07-30T09:57:25.457Z,28.47
2022-07-30T10:00:18.652Z,28.36
2022-07-30T10:02:54.157Z,28.48
2022-07-30T10:05:27.841Z,28.60
2022-07-30T10:08:09.422Z,28.32
2022-07-30T10:10:50.980Z,28.33
2022-07-30T10:13:24.422Z,28.05
2022-07-30T10:16:06.684Z,28.28
2022-07-30T10:18:44.009Z,28.41
2022-07-30T10:21:17.691Z,28.51
2022-07-30T10:23:52.534Z,28.23
2022-07-30T10:26:26.674Z,28.32
2022-07-30T10:29:00.311Z,27.96
2022-07-30T10:31:47.134Z,28.14
2022-07-30T10:34:27.030Z,27.95
2022-07-30T10:37:06.668Z,27.84
2022-07-30T10:39:48.907Z,27.65
2022-07-30T10:42:40.107Z,27.29
2022-07-30T10:45:19.511Z,27.45
2022-07-30T10:47:54.230Z,27.91
2022-07-30T10:50:29.207Z,27.89
2022-07-30T10:53:02.924Z,27.96
2022-07-30T10:55:38.659Z,28.24
2022-07-30T10:58:15.635Z,28.35
2022-07-30T11:01:00.248Z,28.81
2022-07-30T11:03:41.157Z,29.17
2022-07-30T11:06:29.212Z,29.33
2022-07-30T11:09:03.478Z,29.07
2022-07-30T11:12:16.124Z,28.61
2022-07-30T11:15:07.375Z,28.29
2022-07-30T11:18:13.157Z,28.29
2022-07-30T11:21:21.528Z,28.09
2022-07-30T11:23:57.094Z,27.96
2022-07-30T11:26:52.881Z,27.95
2022-07-30T11:29:50.470Z,27.59
2022-07-30T11:32:32.031Z,27.77
2022-07-30T11:35:18.654Z,28.08
2022-07-30T11:38:05.078Z,28.41
2022-07-30T11:41:10.883Z,28.70
2022-07-30T11:43:43.954Z,28.71
2022-07-30T11:46:28.991Z,28.96
2022-07-30T11:49:08.629Z,29.18
2022-07-30T11:51:43.244Z,29.39
2022-07-30T11:54:16.987Z,29.19
2022-07-30T11:56:54.111Z,29.20
2022-07-30T11:59:27.937Z,29.10
2022-07-30T12:02:02.162Z,29.00
2022-07-30T12:04:44.649Z,29.11
2022-07-30T12:07:23.893Z,29.08
2022-07-30T12:10:14.586Z,29.23
2022-07-30T12:12:50.789Z,29.39
2022-07-30T12:15:32.734Z,29.39
2022-07-30T12:18:25.417Z,29.34
2022-07-30T12:21:01.254Z,29.22
2022-07-30T12:23:34.313Z,29.19
2022-07-30T12:26:07.463Z,29.33
2022-07-30T12:28:42.438Z,29.29
2022-07-30T12:31:17.636Z,29.27
2022-07-30T12:33:50.926Z,29.22
2022-07-30T12:36:30.779Z,29.52
2022-07-30T12:39:06.763Z,29.52
2022-07-30T12:41:45.638Z,29.40
2022-07-30T12:44:40.776Z,29.17
2022-07-30T12:47:23.851Z,28.89
2022-07-30T12:50:00.649Z,28.72
2022-07-30T12:52:37.695Z,28.68
2022-07-30T12:55:13.616Z,28.70
2022-07-30T12:58:02.987Z,28.80
2022-07-30T13:00:52.709Z,28.78
2022-07-30T13:03:28.348Z,28.56
2022-07-30T13:06:02.202Z,28.44
2022-07-30T13:08:52.485Z,28.63
2022-07-30T13:11:27.319Z,28.91
2022-07-30T13:14:01.708Z,29.16
2022-07-30T13:16:37.676Z,29.18
2022-07-30T13:19:12.963Z,29.04
2022-07-30T13:21:49.670Z,28.72
2022-07-30T13:24:23.505Z,28.74
2022-07-30T13:26:57.471Z,28.66
2022-07-30T13:29:30.985Z,28.50
2022-07-30T13:32:06.070Z,28.46
2022-07-30T13:34:39.990Z,28.29
2022-07-30T13:37:13.122Z,28.29
2022-07-30T13:39:46.195Z,28.15
2022-07-30T13:42:19.296Z,28.34
2022-07-30T13:44:54.707Z,28.44
2022-07-30T13:47:29.591Z,28.60
2022-07-30T13:50:02.786Z,28.61
2022-07-30T13:56:52.667Z,28.48
2022-07-30T13:59:51.256Z,28.49
2022-07-30T14:02:26.446Z,28.48
2022-07-30T14:05:34.374Z,28.62
2022-07-30T14:08:23.048Z,28.78
2022-07-30T14:11:31.962Z,28.85
2022-07-30T14:14:42.842Z,28.66
2022-07-30T14:17:56.601Z,28.72
2022-07-30T14:20:49.705Z,28.67
2022-07-30T14:24:28.462Z,28.79
2022-07-30T14:30:32.749Z,28.65
2022-07-30T14:33:41.082Z,28.74
2022-07-30T14:36:39.811Z,28.93
2022-07-30T14:39:45.778Z,28.89
2022-07-30T14:42:21.268Z,29.16
2022-07-30T14:44:57.073Z,28.95
2022-07-30T14:47:30.533Z,28.94
2022-07-30T14:50:04.865Z,28.91
2022-07-30T14:52:40.147Z,28.89
2022-07-30T14:55:13.322Z,28.89
2022-07-30T14:57:46.674Z,28.82
2022-07-30T15:00:21.314Z,28.92
2022-07-30T15:02:57.696Z,28.90
2022-07-30T15:05:31.073Z,28.88
2022-07-30T15:08:06.377Z,29.02
2022-07-30T15:10:41.287Z,28.98
2022-07-30T15:13:17.078Z,28.99
2022-07-30T15:15:51.924Z,29.11
2022-07-30T15:18:25.335Z,29.16
2022-07-30T15:20:58.552Z,29.13
2022-07-30T15:23:33.369Z,29.26
2022-07-30T15:26:06.716Z,29.22
2022-07-30T15:28:40.099Z,29.14
2022-07-30T15:31:13.363Z,29.15
2022-07-30T15:33:47.174Z,29.03
2022-07-30T15:36:20.270Z,28.97
2022-07-30T15:38:55.109Z,29.06
2022-07-30T15:41:28.243Z,28.92
2022-07-30T15:44:01.383Z,28.98
2022-07-30T15:46:34.786Z,28.90
2022-07-30T15:49:08.249Z,28.85
2022-07-30T15:51:47.452Z,28.75
2022-07-30T15:54:23.865Z,28.79
2022-07-30T15:57:01.152Z,28.79
2022-07-30T15:59:34.793Z,28.71
2022-07-30T16:02:07.937Z,28.75
2022-07-30T16:04:41.110Z,28.90
2022-07-30T16:07:14.491Z,28.91
2022-07-30T16:09:48.932Z,28.94
2022-07-30T16:12:22.047Z,28.94
2022-07-30T16:14:55.231Z,29.04
2022-07-30T16:17:28.527Z,28.94
2022-07-30T16:20:01.779Z,28.90
2022-07-30T16:22:34.871Z,28.99
2022-07-30T16:25:10.258Z,29.09
2022-07-30T16:27:43.409Z,29.09
2022-07-30T16:30:16.575Z,28.99
2022-07-30T16:32:50.518Z,28.93
2022-07-30T16:35:24.539Z,28.79
2022-07-30T16:38:02.710Z,28.69
2022-07-30T16:40:37.222Z,28.59
2022-07-30T16:43:10.360Z,28.51
2022-07-30T16:45:43.896Z,28.39
2022-07-30T16:48:17.100Z,28.32
2022-07-30T16:50:50.243Z,28.37
2022-07-30T16:53:23.366Z,28.36
2022-07-30T16:55:58.495Z,28.30
2022-07-30T16:58:31.779Z,28.29
2022-07-30T17:01:05.008Z,28.30
2022-07-30T17:03:38.138Z,28.38
2022-07-30T17:06:11.220Z,28.37
2022-07-30T17:08:44.812Z,28.29
2022-07-30T17:11:46.324Z,28.29
2022-07-30T17:14:13.698Z,28.28
2022-07-30T17:16:46.839Z,28.27
2022-07-30T17:19:19.962Z,28.14
2022-07-30T17:21:53.554Z,28.17
2022-07-30T17:24:26.698Z,28.07
2022-07-30T17:27:01.198Z,27.95
2022-07-30T17:29:34.349Z,27.84
2022-07-30T17:32:23.340Z,27.71
2022-07-30T17:34:56.463Z,27.66
2022-07-30T17:37:29.573Z,27.55
2022-07-30T17:40:27.478Z,27.51
2022-07-30T17:43:03.098Z,27.39
2022-07-30T17:45:37.673Z,27.34
2022-07-30T17:48:10.970Z,27.34
2022-07-30T17:50:44.076Z,27.22
2022-07-30T17:53:19.291Z,27.15
2022-07-30T17:55:57.439Z,27.08
2022-07-30T17:58:32.659Z,26.99
2022-07-30T18:01:06.094Z,26.93
2022-07-30T18:03:39.615Z,26.87
2022-07-30T18:06:18.319Z,26.78
2022-07-30T18:08:51.640Z,26.71
2022-07-30T18:11:25.193Z,26.63
2022-07-30T18:14:00.190Z,26.54
2022-07-30T18:16:33.317Z,26.41
2022-07-30T18:19:06.479Z,26.29
2022-07-30T18:21:39.606Z,26.16
2022-07-30T18:24:13.328Z,25.99
2022-07-30T18:26:46.895Z,25.87
2022-07-30T18:29:21.414Z,25.82
2022-07-30T18:31:54.507Z,25.73
2022-07-30T18:34:27.667Z,25.51
2022-07-30T18:37:00.745Z,25.43
2022-07-30T18:39:33.869Z,25.37
2022-07-30T18:42:07.812Z,25.29
2022-07-30T18:44:42.503Z,25.17
2022-07-30T18:47:15.731Z,25.09
2022-07-30T18:49:50.173Z,25.03
2022-07-30T18:52:23.530Z,24.98
2022-07-30T18:54:56.615Z,24.84
2022-07-30T18:57:29.741Z,24.72
2022-07-30T19:00:05.754Z,24.62
2022-07-30T19:02:39.781Z,24.52
2022-07-30T19:05:13.090Z,24.46
2022-07-30T19:07:55.359Z,24.39
2022-07-30T19:10:31.405Z,24.33
2022-07-30T19:13:05.154Z,24.17
2022-07-30T19:15:40.207Z,24.05
2022-07-30T19:18:13.261Z,23.94
2022-07-30T19:20:46.595Z,23.81
2022-07-30T19:23:19.736Z,23.70
2022-07-30T19:25:52.862Z,23.63
2022-07-30T19:28:26.777Z,23.59
2022-07-30T19:31:01.279Z,23.46
2022-07-30T19:33:34.366Z,23.32
2022-07-30T19:36:07.787Z,23.27
2022-07-30T19:38:44.147Z,23.22
2022-07-30T19:41:18.508Z,23.15
2022-07-30T19:43:57.917Z,23.10
2022-07-30T19:46:32.787Z,23.04
2022-07-30T19:49:07.051Z,23.02
2022-07-30T19:52:11.217Z,22.93
2022-07-30T19:54:33.639Z,22.89
2022-07-30T19:57:09.829Z,22.76
2022-07-30T19:59:46.545Z,22.60
2022-07-30T20:02:35.670Z,22.57
2022-07-30T20:05:11.788Z,22.50
2022-07-30T20:07:48.971Z,22.32
2022-07-30T20:10:22.617Z,22.31
2022-07-30T20:12:55.724Z,22.22
2022-07-30T20:15:30.314Z,22.13
2022-07-30T20:18:05.259Z,21.97
2022-07-30T20:20:41.329Z,21.91
2022-07-30T20:23:14.664Z,21.91
2022-07-30T20:25:48.098Z,21.89
2022-07-30T20:28:21.709Z,21.73
2022-07-30T20:31:00.424Z,21.69
2022-07-30T20:33:36.028Z,21.53
2022-07-30T20:36:11.594Z,21.47
2022-07-30T20:38:47.103Z,21.47
2022-07-30T20:41:27.104Z,21.48
2022-07-30T20:44:25.252Z,21.37
2022-07-30T20:47:28.261Z,21.29
2022-07-30T20:50:30.617Z,21.18
2022-07-30T20:53:14.442Z,21.13
2022-07-30T20:55:56.348Z,21.08
2022-07-30T20:58:53.519Z,21.01
2022-07-30T21:02:00.516Z,20.82
2022-07-30T21:04:46.509Z,20.77
2022-07-30T21:07:59.809Z,20.59
2022-07-30T21:10:50.102Z,20.58
2022-07-30T21:13:35.405Z,20.61
2022-07-30T21:16:32.498Z,20.65
2022-07-30T21:19:33.362Z,20.62
2022-07-30T21:22:35.969Z,20.63
2022-07-30T21:25:33.482Z,20.63
2022-07-30T21:28:27.681Z,20.34
2022-07-30T21:38:04.494Z,20.16
2022-07-30T21:41:15.472Z,20.08
2022-07-30T21:44:00.587Z,20.01
2022-07-30T21:47:11.643Z,19.94
2022-07-30T21:49:55.913Z,19.91
2022-07-30T21:53:04.427Z,19.74
2022-07-30T21:58:45.728Z,19.64
2022-07-30T22:01:39.509Z,19.56
2022-07-30T22:04:39.594Z,19.49
2022-07-30T22:07:13.206Z,19.32
2022-07-30T22:09:47.672Z,19.15
2022-07-30T22:12:20.781Z,19.05
2022-07-30T22:14:53.850Z,19.02
2022-07-30T22:17:36.596Z,19.02
2022-07-30T22:20:12.539Z,18.97
2022-07-30T22:22:45.628Z,18.98
2022-07-30T22:25:21.607Z,18.95
2022-07-30T22:27:57.195Z,18.98
2022-07-30T22:30:31.120Z,18.84
2022-07-30T22:33:13.071Z,18.82
2022-07-30T22:35:49.691Z,18.75
2022-07-30T22:38:23.239Z,18.76
2022-07-30T22:40:57.692Z,18.75
2022-07-30T22:43:35.512Z,18.78
2022-07-30T22:46:14.922Z,18.73
2022-07-30T22:49:03.822Z,18.73
2022-07-30T22:52:02.851Z,18.69
2022-07-30T22:54:30.477Z,18.59
2022-07-30T22:57:05.103Z,18.54
2022-07-30T22:59:58.448Z,18.56
2022-07-30T23:02:31.269Z,18.56
2022-07-30T23:05:04.924Z,18.54
2022-07-30T23:07:39.794Z,18.52
2022-07-30T23:10:18.054Z,18.55
2022-07-30T23:12:53.597Z,18.48
2022-07-30T23:15:26.974Z,18.45
2022-07-30T23:18:00.278Z,18.45
2022-07-30T23:20:33.688Z,18.42
2022-07-30T23:23:06.755Z,18.29
2022-07-30T23:25:40.615Z,18.21
2022-07-30T23:28:15.088Z,18.18
2022-07-30T23:30:49.041Z,18.22
2022-07-30T23:33:22.170Z,18.10
2022-07-30T23:35:55.261Z,18.16
2022-07-30T23:38:28.801Z,18.06
2022-07-30T23:41:04.027Z,17.96
2022-07-30T23:43:39.753Z,18.00
2022-07-30T23:46:13.914Z,17.97
2022-07-30T23:48:47.378Z,17.96
2022-07-30T23:51:20.619Z,17.91
2022-07-30T23:53:53.698Z,17.88
2022-07-30T23:56:27.232Z,17.85
2022-07-30T23:59:01.710Z,17.85
